createdAt,value
2018-12-24T00:05:40.010Z,11.41
2018-12-24T00:08:13.715Z,11.40
2018-12-24T00:11:05.815Z,11.41
2018-12-24T00:14:03.928Z,11.43
2018-12-24T00:17:01.045Z,11.45
2018-12-24T00:19:33.001Z,11.44
2018-12-24T00:22:25.269Z,11.51
2018-12-24T00:24:59.455Z,11.59
2018-12-24T00:27:50.930Z,11.59
2018-12-24T00:30:23.525Z,11.59
2018-12-24T00:33:15.651Z,11.64
2018-12-24T00:35:47.859Z,11.63
2018-12-24T00:38:20.580Z,11.56
2018-12-24T00:40:53.420Z,11.46
2018-12-24T00:43:28.609Z,11.48
2018-12-24T00:46:00.524Z,11.46
2018-12-24T00:51:46.855Z,11.40
2018-12-24T00:54:22.729Z,11.49
2018-12-24T00:57:14.392Z,11.52
2018-12-24T00:59:51.885Z,11.45
2018-12-24T01:02:59.214Z,11.40
2018-12-24T01:11:55.192Z,11.27
2018-12-24T01:15:16.395Z,11.26
2018-12-24T01:18:28.995Z,11.25
2018-12-24T01:21:08.972Z,11.18
2018-12-24T01:32:34.535Z,11.12
2018-12-24T01:41:05.895Z,11.24
2018-12-24T01:49:00.243Z,11.11
2018-12-24T01:54:48.586Z,11.14
2018-12-24T01:57:43.846Z,11.18
2018-12-24T02:09:13.956Z,11.19
2018-12-24T02:11:49.543Z,11.18
2018-12-24T02:17:14.844Z,11.10
2018-12-24T02:19:47.222Z,11.12
2018-12-24T02:22:20.864Z,11.19
2018-12-24T02:24:53.484Z,11.21
2018-12-24T02:27:27.211Z,11.06
2018-12-24T02:30:30.441Z,10.58
2018-12-24T02:35:55.163Z,9.24
2018-12-24T02:38:46.706Z,8.85
2018-12-24T02:41:37.132Z,8.74
2018-12-24T02:47:13.036Z,8.52
2018-12-24T02:50:03.795Z,8.36
2018-12-24T02:52:54.648Z,8.30
2018-12-24T02:55:45.703Z,8.30
2018-12-24T02:58:18.015Z,8.10
2018-12-24T03:01:11.004Z,8.07
2018-12-24T03:03:42.826Z,8.05
2018-12-24T03:06:39.763Z,8.04
2018-12-24T03:09:33.026Z,8.06
2018-12-24T03:12:06.012Z,8.00
2018-12-24T03:14:57.562Z,7.84
2018-12-24T03:17:29.777Z,7.90
2018-12-24T03:20:07.648Z,7.72
2018-12-24T03:22:40.275Z,7.74
2018-12-24T03:25:43.340Z,7.66
2018-12-24T03:31:15.894Z,7.65
2018-12-24T03:33:48.075Z,7.57
2018-12-24T03:36:20.295Z,7.51
2018-12-24T03:38:52.184Z,7.46
2018-12-24T03:44:54.283Z,7.34
2018-12-24T03:47:26.346Z,7.33
2018-12-24T03:53:32.115Z,7.32
2018-12-24T03:56:39.932Z,7.24
2018-12-24T03:59:12.418Z,7.18
2018-12-24T04:04:44.480Z,6.93
2018-12-24T04:07:26.831Z,6.80
2018-12-24T04:13:09.079Z,6.73
2018-12-24T04:16:00.833Z,6.59
2018-12-24T04:18:32.894Z,6.57
2018-12-24T04:21:23.314Z,6.63
2018-12-24T04:23:56.465Z,6.51
2018-12-24T04:26:28.730Z,6.54
2018-12-24T04:29:28.941Z,6.71
2018-12-24T04:31:45.030Z,6.59
2018-12-24T04:34:17.823Z,6.47
2018-12-24T04:36:49.804Z,6.53
2018-12-24T04:39:40.238Z,6.50
2018-12-24T04:42:12.373Z,6.41
2018-12-24T04:44:44.585Z,6.44
2018-12-24T04:47:18.548Z,6.40
2018-12-24T04:49:50.284Z,6.41
2018-12-24T04:52:22.269Z,6.36
2018-12-24T04:57:53.637Z,6.26
2018-12-24T05:07:03.637Z,6.18
2018-12-24T05:09:46.404Z,6.02
2018-12-24T05:12:36.825Z,5.97
2018-12-24T05:18:25.893Z,5.96
2018-12-24T05:21:00.246Z,5.82
2018-12-24T05:23:51.327Z,5.76
2018-12-24T05:29:37.848Z,5.74
2018-12-24T05:32:09.637Z,5.77
2018-12-24T05:34:42.893Z,5.60
2018-12-24T05:37:16.224Z,5.62
2018-12-24T05:39:58.603Z,5.63
2018-12-24T05:45:33.805Z,5.49
2018-12-24T05:48:24.709Z,5.38
2018-12-24T05:51:41.619Z,5.40
2018-12-24T05:54:32.734Z,5.40
2018-12-24T05:57:26.550Z,5.17
2018-12-24T06:00:38.696Z,5.13
2018-12-24T06:03:29.382Z,5.02
2018-12-24T06:06:01.574Z,5.14
2018-12-24T06:08:33.988Z,5.14
2018-12-24T06:11:25.685Z,5.16
2018-12-24T06:14:08.764Z,5.21
2018-12-24T06:16:51.934Z,5.20
2018-12-24T06:19:34.314Z,5.03
2018-12-24T06:22:07.437Z,5.23
2018-12-24T06:28:23.557Z,4.22
2018-12-24T06:31:18.095Z,5.14
2018-12-24T06:33:50.623Z,5.22
2018-12-24T06:37:09.498Z,5.29
2018-12-24T06:43:41.459Z,5.34
2018-12-24T06:46:34.451Z,5.35
2018-12-24T06:49:25.232Z,5.24
2018-12-24T06:52:43.126Z,5.30
2018-12-24T06:55:36.366Z,5.33
2018-12-24T07:03:43.417Z,5.33
2018-12-24T07:10:07.443Z,5.21
2018-12-24T07:12:47.269Z,5.25
2018-12-24T07:15:21.110Z,5.23
2018-12-24T07:18:13.321Z,5.25
2018-12-24T07:21:26.888Z,5.34
2018-12-24T07:24:19.770Z,5.28
2018-12-24T07:26:52.337Z,5.37
2018-12-24T07:29:25.937Z,5.39
2018-12-24T07:32:20.657Z,5.33
2018-12-24T07:38:15.425Z,5.39
2018-12-24T07:41:06.095Z,5.32
2018-12-24T07:44:24.226Z,5.20
2018-12-24T07:47:13.078Z,5.12
2018-12-24T07:53:35.362Z,5.11
2018-12-24T07:57:04.522Z,5.04
2018-12-24T08:00:10.048Z,5.06
2018-12-24T08:03:00.396Z,4.30
2018-12-24T08:05:51.948Z,5.33
2018-12-24T08:09:01.727Z,5.20
2018-12-24T08:19:30.560Z,5.20
2018-12-24T08:36:34.042Z,5.52
2018-12-24T08:39:10.989Z,5.65
2018-12-24T08:41:46.059Z,5.73
2018-12-24T08:44:25.310Z,5.70
2018-12-24T08:46:57.285Z,5.82
2018-12-24T08:49:35.347Z,5.78
2018-12-24T08:52:30.599Z,5.73
2018-12-24T08:55:31.180Z,5.72
2018-12-24T08:58:22.671Z,5.75
2018-12-24T09:04:11.200Z,5.72
2018-12-24T09:06:46.222Z,5.73
2018-12-24T09:13:19.198Z,5.67
2018-12-24T09:16:12.506Z,5.62
2018-12-24T09:18:45.880Z,5.71
2018-12-24T09:24:21.821Z,5.62
2018-12-24T09:27:13.907Z,5.63
2018-12-24T09:29:49.873Z,5.66
2018-12-24T09:35:31.089Z,5.74
2018-12-24T09:38:04.421Z,5.69
2018-12-24T09:40:56.167Z,5.67
2018-12-24T09:46:50.452Z,4.89
2018-12-24T09:49:33.658Z,5.84
2018-12-24T09:55:14.976Z,5.99
2018-12-24T09:58:11.438Z,5.99
2018-12-24T10:00:53.465Z,5.93
2018-12-24T10:03:48.627Z,5.90
2018-12-24T10:06:39.979Z,5.89
2018-12-24T10:09:22.279Z,5.60
2018-12-24T10:15:07.995Z,5.89
2018-12-24T10:17:35.900Z,6.01
2018-12-24T10:20:13.560Z,6.12
2018-12-24T10:23:04.457Z,6.09
2018-12-24T10:25:55.353Z,6.09
2018-12-24T10:28:48.011Z,6.13
2018-12-24T10:31:20.848Z,6.08
2018-12-24T10:34:18.348Z,6.16
2018-12-24T10:38:30.365Z,5.68
2018-12-24T10:41:11.981Z,6.45
2018-12-24T10:43:55.504Z,6.44
2018-12-24T10:46:28.151Z,6.41
2018-12-24T10:49:00.597Z,6.48
2018-12-24T10:51:52.001Z,6.54
2018-12-24T10:54:23.874Z,6.62
2018-12-24T10:56:55.877Z,6.77
2018-12-24T10:59:47.768Z,6.77
2018-12-24T11:02:37.997Z,6.86
2018-12-24T11:05:29.189Z,6.90
2018-12-24T11:08:03.276Z,6.87
2018-12-24T11:10:37.576Z,6.91
2018-12-24T11:13:30.043Z,6.95
2018-12-24T11:16:35.489Z,5.90
2018-12-24T11:22:03.020Z,6.49
2018-12-24T11:24:51.459Z,6.37
2018-12-24T11:30:29.597Z,6.01
2018-12-24T11:33:21.318Z,5.91
2018-12-24T11:36:47.679Z,5.72
2018-12-24T11:39:40.780Z,5.49
2018-12-24T11:42:49.711Z,5.57
2018-12-24T11:51:29.380Z,5.86
2018-12-24T11:56:58.192Z,6.23
2018-12-24T11:59:30.346Z,6.23
2018-12-24T12:02:09.754Z,6.16
2018-12-24T12:04:35.110Z,6.04
2018-12-24T12:07:25.641Z,6.01
2018-12-24T12:09:57.403Z,6.09
2018-12-24T12:12:48.130Z,6.11
2018-12-24T12:15:21.728Z,6.19
2018-12-24T12:21:25.374Z,6.37
2018-12-24T12:23:56.879Z,6.29
2018-12-24T12:26:30.357Z,6.28
2018-12-24T12:29:02.295Z,6.27
2018-12-24T12:31:34.669Z,6.18
2018-12-24T12:34:06.332Z,6.04
2018-12-24T12:36:58.047Z,5.97
2018-12-24T12:39:48.228Z,5.18
2018-12-24T12:42:22.877Z,5.67
2018-12-24T12:47:50.750Z,4.86
2018-12-24T12:50:59.944Z,5.55
2018-12-24T12:53:32.260Z,5.29
2018-12-24T12:56:05.109Z,5.00
2018-12-24T13:01:58.036Z,4.87
2018-12-24T13:04:29.738Z,4.94
2018-12-24T13:07:00.928Z,5.00
2018-12-24T13:13:06.576Z,5.19
2018-12-24T13:15:37.848Z,5.31
2018-12-24T13:18:28.116Z,5.38
2018-12-24T13:23:56.942Z,5.49
2018-12-24T13:27:24.798Z,5.51
2018-12-24T13:29:56.068Z,5.54
2018-12-24T13:32:46.341Z,5.64
2018-12-24T13:39:17.641Z,5.60
2018-12-24T13:41:48.919Z,5.72
2018-12-24T13:44:19.918Z,5.66
2018-12-24T13:47:11.073Z,5.42
2018-12-24T13:50:01.122Z,5.35
2018-12-24T13:52:33.586Z,5.26
2018-12-24T13:55:25.252Z,5.17
2018-12-24T13:57:56.940Z,4.66
2018-12-24T14:04:10.757Z,5.23
2018-12-24T14:09:35.952Z,5.41
2018-12-24T14:12:07.652Z,5.19
2018-12-24T14:14:39.168Z,5.12
2018-12-24T14:17:10.329Z,5.09
2018-12-24T14:19:50.929Z,5.03
2018-12-24T14:22:22.477Z,5.06
2018-12-24T14:25:13.003Z,5.15
2018-12-24T14:27:44.883Z,4.52
2018-12-24T14:30:16.289Z,5.37
2018-12-24T14:32:47.493Z,5.21
2018-12-24T14:35:20.167Z,5.07
2018-12-24T14:38:10.197Z,5.05
2018-12-24T14:43:38.762Z,4.87
2018-12-24T14:46:10.042Z,4.87
2018-12-24T14:49:03.260Z,4.83
2018-12-24T14:55:02.532Z,4.93
2018-12-24T15:00:43.148Z,4.67
2018-12-24T15:03:33.599Z,4.70
2018-12-24T15:06:05.109Z,4.60
2018-12-24T15:08:58.692Z,4.62
2018-12-24T15:11:49.403Z,4.67
2018-12-24T15:14:31.362Z,4.58
2018-12-24T15:17:12.823Z,4.61
2018-12-24T15:19:44.600Z,4.62
2018-12-24T15:22:34.550Z,4.62
2018-12-24T15:25:24.997Z,4.72
2018-12-24T15:28:15.302Z,4.78
2018-12-24T15:33:49.188Z,4.58
2018-12-24T15:36:40.430Z,4.65
2018-12-24T15:39:13.155Z,4.62
2018-12-24T15:42:06.437Z,4.62
2018-12-24T15:44:39.596Z,4.68
2018-12-24T15:47:10.894Z,4.68
2018-12-24T15:50:05.627Z,4.68
2018-12-24T15:52:56.220Z,4.63
2018-12-24T15:55:28.428Z,4.58
2018-12-24T16:01:03.119Z,4.47
2018-12-24T16:03:37.149Z,4.42
2018-12-24T16:06:09.612Z,4.38
2018-12-24T16:09:19.889Z,4.45
2018-12-24T16:12:10.371Z,4.47
2018-12-24T16:15:00.901Z,3.82
2018-12-24T16:18:13.986Z,4.44
2018-12-24T16:20:53.791Z,4.45
2018-12-24T16:24:03.370Z,4.46
2018-12-24T16:26:53.981Z,4.41
2018-12-24T16:29:38.123Z,4.28
2018-12-24T16:35:52.171Z,4.14
2018-12-24T16:38:44.104Z,4.02
2018-12-24T16:41:33.027Z,4.07
2018-12-24T16:44:04.667Z,3.89
2018-12-24T16:47:17.750Z,3.81
2018-12-24T16:50:10.117Z,3.85
2018-12-24T16:52:45.135Z,2.81
2018-12-24T16:55:51.830Z,3.77
2018-12-24T16:58:34.138Z,3.80
2018-12-24T17:01:06.202Z,3.76
2018-12-24T17:03:57.210Z,3.66
2018-12-24T17:06:31.882Z,3.59
2018-12-24T17:09:05.163Z,3.51
2018-12-24T17:11:39.667Z,3.44
2018-12-24T17:17:20.547Z,3.53
2018-12-24T17:23:12.951Z,3.69
2018-12-24T17:26:16.399Z,3.71
2018-12-24T17:31:49.001Z,3.66
2018-12-24T17:34:23.758Z,3.65
2018-12-24T17:37:29.382Z,3.72
2018-12-24T17:40:48.566Z,3.79
2018-12-24T17:43:20.542Z,3.93
2018-12-24T17:46:48.167Z,4.23
2018-12-24T17:49:39.119Z,4.27
2018-12-24T17:55:30.328Z,4.54
2018-12-24T17:58:20.912Z,4.48
2018-12-24T18:00:53.069Z,4.42
2018-12-24T18:03:28.512Z,4.43
2018-12-24T18:06:17.647Z,4.32
2018-12-24T18:09:09.037Z,4.32
2018-12-24T18:14:52.291Z,4.28
2018-12-24T18:17:25.136Z,4.20
2018-12-24T18:20:17.365Z,4.21
2018-12-24T18:23:42.389Z,4.10
2018-12-24T18:26:16.812Z,3.57
2018-12-24T18:29:12.682Z,4.20
2018-12-24T18:32:01.079Z,4.15
2018-12-24T18:38:34.233Z,4.26
2018-12-24T18:41:09.016Z,4.17
2018-12-24T18:43:44.612Z,4.13
2018-12-24T18:46:36.345Z,4.13
2018-12-24T18:49:49.037Z,4.08
2018-12-24T18:52:45.348Z,4.06
2018-12-24T18:55:35.744Z,4.05
2018-12-24T18:58:27.801Z,4.04
2018-12-24T19:01:36.645Z,4.04
2018-12-24T19:04:28.161Z,4.04
2018-12-24T19:07:21.220Z,4.09
2018-12-24T19:16:35.591Z,4.01
2018-12-24T19:19:21.614Z,3.94
2018-12-24T19:22:12.062Z,3.91
2018-12-24T19:25:33.131Z,4.00
2018-12-24T19:28:10.291Z,3.94
2018-12-24T19:30:43.993Z,4.08
2018-12-24T19:33:39.425Z,3.94
2018-12-24T19:39:55.040Z,3.92
2018-12-24T19:42:52.230Z,3.83
2018-12-24T19:45:45.825Z,3.80
2018-12-24T19:48:19.084Z,3.75
2018-12-24T19:54:24.529Z,3.70
2018-12-24T19:57:16.860Z,3.74
2018-12-24T20:00:08.991Z,3.65
2018-12-24T20:33:47.777Z,3.32
2018-12-24T20:42:24.407Z,2.09
2018-12-24T20:49:01.212Z,3.17
2018-12-24T20:51:48.368Z,3.19
2018-12-24T20:57:24.033Z,3.31
2018-12-24T20:59:58.141Z,3.35
2018-12-24T21:02:51.791Z,3.25
2018-12-24T21:05:29.000Z,3.18
2018-12-24T21:08:08.195Z,3.18
2018-12-24T21:13:49.551Z,2.87
2018-12-24T21:28:39.122Z,2.10
2018-12-24T21:52:56.631Z,1.62
2018-12-24T21:59:45.231Z,1.47
2018-12-24T22:21:45.050Z,1.36
2018-12-24T22:34:58.963Z,1.05
2018-12-24T23:09:19.621Z,0.73
2018-12-24T23:18:23.139Z,0.41
2018-12-24T23:27:25.959Z,0.47
2018-12-24T23:44:05.600Z,0.38
2018-12-24T23:46:57.029Z,0.39
2018-12-24T23:49:52.191Z,0.30
2018-12-24T23:55:53.299Z,0.25
2018-12-24T23:58:30.281Z,0.22
